Time;durP1;ratioP1;P1;durP2;ratioP2;P2;SDS_P1;SDS_P2;PMS_P1;PMS_P2;Temp;Humidity;BMP_temperature;BMP_pressure;BME280_temperature;BME280_humidity;BME280_pressure;Samples;Min_cycle;Max_cycle;Signal;HPM_P1;HPM_P2
2022/04/19 00:02:23;;;;;;;4.32;2.00;;;8.50;99.90;;;;;;6211933;23;20013;-87
2022/04/19 00:04:48;;;;;;;8.68;1.95;;;8.50;99.90;;;;;;6211712;23;20009;-85
2022/04/19 00:07:14;;;;;;;6.05;1.92;;;8.50;99.90;;;;;;6211703;23;20012;-84
2022/04/19 00:09:40;;;;;;;7.30;2.50;;;8.40;99.90;;;;;;6186630;23;20160;-85
2022/04/19 00:12:06;;;;;;;5.38;2.40;;;8.40;99.90;;;;;;6211616;23;20017;-85
2022/04/19 00:14:34;;;;;;;4.80;2.72;;;8.30;99.90;;;;;;6211658;23;20000;-86
2022/04/19 00:16:59;;;;;;;9.73;2.80;;;8.20;99.90;;;;;;6213371;23;20004;-85
2022/04/19 00:19:25;;;;;;;5.75;2.47;;;8.20;99.90;;;;;;6212422;23;20317;-86
2022/04/19 00:21:52;;;;;;;9.48;2.70;;;8.20;99.90;;;;;;6187616;23;20495;-85
2022/04/19 00:24:18;;;;;;;10.32;2.63;;;8.20;99.90;;;;;;6212517;23;20012;-86
2022/04/19 00:26:43;;;;;;;13.52;3.55;;;8.10;99.90;;;;;;6213152;23;20503;-85
2022/04/19 00:29:09;;;;;;;4.15;2.00;;;8.10;99.90;;;;;;6221078;23;20431;-85
2022/04/19 00:31:35;;;;;;;5.60;2.20;;;8.10;99.90;;;;;;6223260;23;20084;-85
2022/04/19 00:34:00;;;;;;;4.75;2.25;;;8.10;99.90;;;;;;6219689;23;20008;-85
2022/04/19 00:36:28;;;;;;;10.93;2.80;;;8.10;99.90;;;;;;6218220;23;20048;-85
2022/04/19 00:38:54;;;;;;;8.20;3.20;;;8.10;99.90;;;;;;6213099;23;20021;-85
2022/04/19 00:41:20;;;;;;;7.38;3.10;;;8.10;99.90;;;;;;6187833;23;20287;-85
2022/04/19 00:43:45;;;;;;;4.38;2.28;;;8.10;99.90;;;;;;6212629;23;20001;-85
2022/04/19 00:46:11;;;;;;;4.78;2.90;;;8.00;99.90;;;;;;6212485;23;20055;-83
2022/04/19 00:48:37;;;;;;;8.88;3.13;;;8.00;99.90;;;;;;6212764;23;20448;-86
2022/04/19 00:51:05;;;;;;;7.25;2.63;;;8.00;99.90;;;;;;6212437;23;20012;-85
2022/04/19 00:53:30;;;;;;;7.32;2.63;;;8.00;99.90;;;;;;6212391;23;20071;-85
2022/04/19 00:55:57;;;;;;;10.48;3.00;;;8.00;99.90;;;;;;6213361;23;20005;-85
2022/04/19 00:58:23;;;;;;;5.93;2.78;;;8.00;99.90;;;;;;6212053;23;20038;-84
2022/04/19 01:00:52;;;;;;;6.40;2.67;;;8.00;99.90;;;;;;6213843;23;20428;-84
2022/04/19 01:03:22;;;;;;;8.35;2.65;;;7.90;99.90;;;;;;6211692;23;20005;-85
2022/04/19 01:05:48;;;;;;;7.18;2.70;;;7.90;99.90;;;;;;6211605;23;20016;-85
2022/04/19 01:08:15;;;;;;;6.75;2.45;;;7.90;99.90;;;;;;6211643;23;20012;-84
2022/04/19 01:10:44;;;;;;;6.30;2.10;;;7.90;99.90;;;;;;6211806;23;20005;-84
2022/04/19 01:13:18;;;;;;;3.65;2.38;;;7.90;99.90;;;;;;6213423;23;20510;-85
2022/04/19 01:15:48;;;;;;;8.30;2.40;;;7.90;99.90;;;;;;6212001;23;20055;-85
2022/04/19 01:18:20;;;;;;;9.65;3.15;;;7.80;99.90;;;;;;6213432;23;20480;-85
2022/04/19 01:20:48;;;;;;;8.02;2.30;;;7.80;99.90;;;;;;6211232;23;20032;-85
2022/04/19 01:23:15;;;;;;;4.30;2.10;;;7.80;99.90;;;;;;6213134;23;20009;-85
2022/04/19 01:25:41;;;;;;;4.60;2.60;;;7.70;99.90;;;;;;6186457;23;20035;-85
2022/04/19 01:28:06;;;;;;;3.67;2.13;;;7.70;99.90;;;;;;6212991;23;20363;-85
2022/04/19 01:30:33;;;;;;;5.30;2.30;;;7.60;99.90;;;;;;6213293;23;20032;-86
2022/04/19 01:32:59;;;;;;;5.38;2.05;;;7.60;99.90;;;;;;6211398;23;20091;-86
2022/04/19 01:35:25;;;;;;;5.55;1.77;;;7.60;99.90;;;;;;6212879;23;20336;-83
2022/04/19 01:37:51;;;;;;;3.70;1.92;;;7.60;99.90;;;;;;6211028;23;20023;-85
2022/04/19 01:40:18;;;;;;;8.50;2.75;;;7.50;99.90;;;;;;6211443;23;20008;-86
2022/04/19 01:42:49;;;;;;;5.30;2.38;;;7.60;99.90;;;;;;6211299;23;20008;-85
2022/04/19 01:45:25;;;;;;;4.38;2.20;;;7.60;99.90;;;;;;6211407;23;20028;-85
2022/04/19 01:47:56;;;;;;;5.40;2.10;;;7.60;99.90;;;;;;6211282;23;20461;-84
2022/04/19 01:50:26;;;;;;;;;;;7.50;99.90;;;;;;6185337;23;20008;-85
2022/04/19 01:52:53;;;;;;;10.00;2.50;;;7.50;99.90;;;;;;6186139;23;19912;-84
2022/04/19 01:55:20;;;;;;;6.10;3.03;;;7.50;99.90;;;;;;6211351;23;20074;-84
2022/04/19 01:58:04;;;;;;;7.10;2.47;;;7.50;99.90;;;;;;6211291;23;20019;-85
2022/04/19 02:00:30;;;;;;;4.45;1.75;;;7.40;99.90;;;;;;6212394;23;20009;-83
2022/04/19 02:02:56;;;;;;;6.57;2.60;;;7.40;99.90;;;;;;6216291;23;20067;-85
2022/04/19 02:05:25;;;;;;;5.40;2.13;;;7.30;99.90;;;;;;6212804;23;20015;-85
2022/04/19 02:07:51;;;;;;;7.18;2.33;;;7.30;99.90;;;;;;6213365;23;20005;-84
2022/04/19 02:10:18;;;;;;;3.85;1.95;;;7.20;99.90;;;;;;6213080;23;20012;-84
2022/04/19 02:12:44;;;;;;;4.40;2.55;;;7.10;99.90;;;;;;6212686;23;20013;-85
2022/04/19 02:15:11;;;;;;;3.20;1.88;;;7.10;99.90;;;;;;6213047;23;20043;-85
2022/04/19 02:17:48;;;;;;;7.97;2.50;;;7.10;99.90;;;;;;6212887;23;20570;-85
2022/04/19 02:20:16;;;;;;;6.80;2.60;;;7.00;99.90;;;;;;6214321;23;20000;-85
2022/04/19 02:22:43;;;;;;;6.85;2.90;;;7.00;99.90;;;;;;6212938;23;20455;-84
2022/04/19 02:25:11;;;;;;;5.05;2.95;;;7.00;99.90;;;;;;6212644;23;20104;-84
2022/04/19 02:27:37;;;;;;;4.03;2.13;;;6.90;99.90;;;;;;6213084;23;20104;-84
2022/04/19 02:30:03;;;;;;;6.97;2.45;;;6.80;99.90;;;;;;6213089;23;20008;-85
2022/04/19 02:32:29;;;;;;;5.30;2.72;;;6.80;99.90;;;;;;6213015;23;20017;-85
2022/04/19 02:34:55;;;;;;;5.07;2.10;;;6.80;99.90;;;;;;6212508;23;20014;-87
2022/04/19 02:37:20;;;;;;;4.90;2.45;;;6.80;99.90;;;;;;6212651;23;20020;-85
2022/04/19 02:39:47;;;;;;;5.00;2.10;;;6.70;99.90;;;;;;6214818;23;20028;-85
2022/04/19 02:42:13;;;;;;;10.85;2.75;;;6.60;99.90;;;;;;6213519;23;20553;-85
2022/04/19 02:44:39;;;;;;;4.25;1.70;;;6.60;99.90;;;;;;6213120;23;20032;-84
2022/04/19 02:47:05;;;;;;;8.13;2.30;;;6.50;99.90;;;;;;6212862;23;20001;-84
2022/04/19 02:49:31;;;;;;;7.13;2.67;;;6.50;99.90;;;;;;6212618;23;20015;-83
2022/04/19 02:51:56;;;;;;;6.00;1.90;;;6.40;99.90;;;;;;6212573;23;20070;-85
2022/04/19 02:54:22;;;;;;;5.43;2.03;;;6.40;99.90;;;;;;6212604;23;20094;-85
2022/04/19 02:56:48;;;;;;;8.75;2.65;;;6.30;99.90;;;;;;6212437;23;20500;-85
2022/04/19 02:59:13;;;;;;;4.57;1.88;;;6.20;99.90;;;;;;6214573;23;20020;-85
2022/04/19 03:01:39;;;;;;;4.43;1.65;;;6.10;99.90;;;;;;6212857;23;20424;-85
2022/04/19 03:04:05;;;;;;;6.30;2.35;;;6.10;99.90;;;;;;6213510;23;20063;-85
2022/04/19 03:06:31;;;;;;;11.90;2.30;;;6.10;99.90;;;;;;6214930;23;20077;-84
2022/04/19 03:08:57;;;;;;;6.97;1.77;;;6.00;99.90;;;;;;6214117;23;20007;-84
2022/04/19 03:11:23;;;;;;;10.73;1.90;;;6.00;99.90;;;;;;6213915;23;20512;-85
2022/04/19 03:13:48;;;;;;;6.95;2.38;;;6.00;99.90;;;;;;6213766;23;20017;-84
2022/04/19 03:16:14;;;;;;;5.13;1.88;;;5.90;99.90;;;;;;6215582;23;20008;-85
2022/04/19 03:18:44;;;;;;;2.10;1.80;;;5.90;99.90;;;;;;6213075;23;20399;-85
2022/04/19 03:21:13;;;;;;;6.78;1.80;;;5.90;99.90;;;;;;6212972;23;20078;-85
2022/04/19 03:29:10;;;;;;;4.70;1.67;;;5.80;99.90;;;;;;6214199;23;20019;-85
2022/04/19 03:31:37;;;;;;;2.38;1.75;;;5.80;99.90;;;;;;6213832;23;20324;-84
2022/04/19 03:34:05;;;;;;;4.82;1.60;;;5.70;99.90;;;;;;6213703;23;20008;-84
2022/04/19 03:36:32;;;;;;;9.57;2.03;;;5.70;99.90;;;;;;6213953;23;20031;-84
2022/04/19 03:38:58;;;;;;;5.57;1.90;;;5.60;99.90;;;;;;6212195;23;20524;-85
2022/04/19 03:41:24;;;;;;;9.25;2.72;;;5.60;99.90;;;;;;6211981;23;20001;-85
2022/04/19 03:43:53;;;;;;;7.82;2.13;;;5.50;99.90;;;;;;6211992;23;20019;-85
2022/04/19 03:46:20;;;;;;;6.72;2.10;;;5.50;99.90;;;;;;6213618;23;20016;-85
2022/04/19 03:48:45;;;;;;;7.82;1.80;;;5.50;99.90;;;;;;6214064;23;20015;-85
2022/04/19 03:51:11;;;;;;;3.40;1.80;;;5.40;99.90;;;;;;6213810;23;20388;-84
2022/04/19 03:53:37;;;;;;;4.22;2.05;;;5.30;99.90;;;;;;6213637;23;20023;-85
2022/04/19 03:56:06;;;;;;;6.10;2.25;;;5.30;99.90;;;;;;6212403;23;20387;-85
2022/04/19 03:58:32;;;;;;;6.25;1.90;;;5.30;99.90;;;;;;6211920;23;20017;-85
2022/04/19 04:00:59;;;;;;;8.70;2.15;;;5.20;99.90;;;;;;6212110;23;19997;-85
2022/04/19 04:03:25;;;;;;;7.20;1.70;;;5.20;99.90;;;;;;6212099;23;20066;-84
2022/04/19 04:05:51;;;;;;;7.20;1.70;;;5.20;99.90;;;;;;6214351;23;20698;-83
2022/04/19 04:08:17;;;;;;;4.10;1.75;;;5.20;99.90;;;;;;6213224;23;20051;-84
2022/04/19 04:10:43;;;;;;;7.00;2.00;;;5.10;99.90;;;;;;6213973;23;20023;-84
2022/04/19 04:13:09;;;;;;;3.85;1.40;;;5.10;99.90;;;;;;6211880;23;20071;-84
2022/04/19 04:15:35;;;;;;;5.07;1.60;;;5.10;99.90;;;;;;6212865;23;20004;-84
2022/04/19 04:18:01;;;;;;;7.35;2.03;;;5.10;99.90;;;;;;6213406;23;20484;-84
2022/04/19 04:20:26;;;;;;;5.65;1.65;;;5.10;99.90;;;;;;6211647;23;20004;-84
2022/04/19 04:22:52;;;;;;;4.88;1.67;;;5.10;99.90;;;;;;6211901;23;20055;-84
2022/04/19 04:25:18;;;;;;;4.40;1.67;;;5.10;99.90;;;;;;6211707;23;20055;-84
2022/04/19 04:27:43;;;;;;;7.55;2.28;;;5.20;99.90;;;;;;6212116;23;20019;-84
2022/04/19 04:30:09;;;;;;;7.05;1.80;;;5.20;99.90;;;;;;6213456;23;20003;-84
2022/04/19 04:32:35;;;;;;;5.30;1.90;;;5.10;99.90;;;;;;6211523;23;20037;-84
2022/04/19 04:35:00;;;;;;;2.25;1.40;;;5.10;99.90;;;;;;6211383;23;20000;-85
2022/04/19 04:37:26;;;;;;;4.60;1.80;;;5.10;99.90;;;;;;6211324;23;20052;-85
2022/04/19 04:39:52;;;;;;;7.45;1.60;;;5.10;99.90;;;;;;6211488;23;20062;-84
2022/04/19 04:42:18;;;;;;;3.35;1.33;;;5.00;99.90;;;;;;6211525;23;20360;-84
2022/04/19 04:44:44;;;;;;;7.95;1.83;;;5.00;99.90;;;;;;6211262;23;20059;-84
2022/04/19 04:49:57;;;;;;;3.17;1.30;;;4.90;99.90;;;;;;6213122;23;20012;-85
2022/04/19 04:52:23;;;;;;;9.43;1.73;;;4.90;99.90;;;;;;6211487;23;20017;-85
2022/04/19 04:54:48;;;;;;;7.78;1.67;;;4.80;99.90;;;;;;6211353;23;20400;-85
2022/04/19 04:57:14;;;;;;;12.88;1.90;;;4.80;99.90;;;;;;6211297;23;20032;-85
2022/04/19 04:59:40;;;;;;;3.83;1.60;;;4.80;99.90;;;;;;6211132;23;20093;-83
2022/04/19 05:02:06;;;;;;;3.00;1.52;;;4.80;99.90;;;;;;6211704;23;20071;-84
2022/04/19 05:04:33;;;;;;;7.22;2.30;;;4.70;99.90;;;;;;6211577;23;20036;-84
2022/04/19 05:06:59;;;;;;;4.43;1.60;;;4.70;99.90;;;;;;6211725;23;20031;-85
2022/04/19 05:09:25;;;;;;;3.58;1.80;;;4.70;99.90;;;;;;6211702;23;20087;-85
2022/04/19 05:11:52;;;;;;;5.63;1.60;;;4.70;99.90;;;;;;6211334;23;20043;-84
2022/04/19 05:14:18;;;;;;;6.32;1.92;;;4.70;99.90;;;;;;6211273;23;20067;-85
2022/04/19 05:16:45;;;;;;;4.85;1.50;;;4.70;99.90;;;;;;6211688;23;20032;-85
2022/04/19 05:19:11;;;;;;;8.65;1.58;;;4.60;99.90;;;;;;6211297;23;20016;-85
2022/04/19 05:21:40;;;;;;;5.95;2.20;;;4.60;99.90;;;;;;6211344;23;20313;-86
2022/04/19 05:24:06;;;;;;;6.20;1.70;;;4.50;99.90;;;;;;6211428;23;20074;-84
2022/04/19 05:26:32;;;;;;;8.10;1.90;;;4.50;99.90;;;;;;6211418;23;20008;-84
2022/04/19 05:28:58;;;;;;;4.53;2.05;;;4.50;99.90;;;;;;6211384;23;20015;-83
2022/04/19 05:31:24;;;;;;;7.78;1.90;;;4.50;99.90;;;;;;6213489;23;20028;-85
2022/04/19 05:33:49;;;;;;;9.23;2.10;;;4.50;99.90;;;;;;6212959;23;20455;-83
2022/04/19 05:36:15;;;;;;;9.55;2.30;;;4.50;99.90;;;;;;6213549;23;20127;-83
2022/04/19 05:38:41;;;;;;;4.40;1.95;;;4.40;99.90;;;;;;6220275;23;20017;-84
2022/04/19 05:41:06;;;;;;;4.43;2.00;;;4.50;99.90;;;;;;6225275;23;20004;-84
2022/04/19 05:43:32;;;;;;;4.82;1.95;;;4.40;99.90;;;;;;6222009;23;20387;-83
2022/04/19 05:45:58;;;;;;;6.53;2.40;;;4.40;99.90;;;;;;6220461;23;20040;-84
2022/04/19 05:48:27;;;;;;;3.97;1.77;;;4.40;99.90;;;;;;6216882;23;20028;-84
2022/04/19 05:50:53;;;;;;;6.18;1.95;;;4.40;99.90;;;;;;6215534;23;20005;-84
2022/04/19 05:53:19;;;;;;;11.48;2.10;;;4.40;99.90;;;;;;6215134;23;20019;-84
2022/04/19 05:55:45;;;;;;;3.78;2.10;;;4.40;99.90;;;;;;6215575;23;20368;-84
2022/04/19 05:58:11;;;;;;;8.75;3.53;;;4.40;99.90;;;;;;6214795;23;20071;-84
2022/04/19 06:00:36;;;;;;;3.92;1.63;;;4.40;99.90;;;;;;6214728;23;20075;-84
2022/04/19 06:05:46;;;;;;;9.20;2.33;;;4.30;99.90;;;;;;6216345;23;20011;-85
2022/04/19 06:08:12;;;;;;;8.10;2.13;;;4.40;99.90;;;;;;6214382;23;20004;-85
2022/04/19 06:10:38;;;;;;;4.60;1.80;;;4.40;99.90;;;;;;6214147;23;20028;-85
2022/04/19 06:13:04;;;;;;;4.40;1.65;;;4.40;99.90;;;;;;6213518;23;20013;-85
2022/04/19 06:15:31;;;;;;;7.07;2.30;;;4.30;99.90;;;;;;6213915;23;20096;-85
2022/04/19 06:17:57;;;;;;;6.55;2.17;;;4.30;99.90;;;;;;6213694;23;20075;-85
2022/04/19 06:20:22;;;;;;;5.95;2.38;;;4.30;99.90;;;;;;6214921;23;20004;-84
2022/04/19 06:22:48;;;;;;;5.90;2.30;;;4.30;99.90;;;;;;6213037;23;20012;-85
2022/04/19 06:25:14;;;;;;;7.00;2.38;;;4.30;99.90;;;;;;6212654;23;20004;-85
2022/04/19 06:27:40;;;;;;;4.28;1.92;;;4.30;99.90;;;;;;6212869;23;20329;-85
2022/04/19 06:30:06;;;;;;;7.25;2.00;;;4.30;99.90;;;;;;6187912;23;20188;-84
2022/04/19 06:32:32;;;;;;;6.80;2.30;;;4.30;99.90;;;;;;6212708;23;20075;-84
2022/04/19 06:34:58;;;;;;;9.63;3.83;;;4.30;99.90;;;;;;6212736;23;20372;-84
2022/04/19 06:37:23;;;;;;;4.75;2.20;;;4.40;99.90;;;;;;6214605;23;20012;-86
2022/04/19 06:39:50;;;;;;;10.57;3.30;;;4.40;99.90;;;;;;6214872;23;20377;-85
2022/04/19 06:42:15;;;;;;;6.40;2.50;;;4.50;99.90;;;;;;6212949;23;20068;-86
2022/04/19 06:44:42;;;;;;;8.63;2.75;;;4.50;99.90;;;;;;6212432;23;20004;-85
2022/04/19 06:47:07;;;;;;;7.40;2.40;;;4.50;99.90;;;;;;6212138;23;20336;-85
2022/04/19 06:49:33;;;;;;;6.38;2.10;;;4.50;99.90;;;;;;6212007;23;20004;-86
2022/04/19 06:51:59;;;;;;;7.47;3.00;;;4.60;99.90;;;;;;6207493;23;20446;-87
2022/04/19 06:54:25;;;;;;;7.38;2.90;;;4.60;99.90;;;;;;6210422;23;20040;-87
2022/04/19 06:56:51;;;;;;;11.45;2.83;;;4.60;99.90;;;;;;6212072;23;20373;-87
2022/04/19 06:59:17;;;;;;;8.38;3.25;;;4.70;99.90;;;;;;6212232;23;20008;-86
2022/04/19 07:01:43;;;;;;;10.13;2.70;;;4.80;99.90;;;;;;6214419;23;20052;-86
2022/04/19 07:04:10;;;;;;;9.73;2.95;;;4.90;99.90;;;;;;6214777;23;20015;-86
2022/04/19 07:06:36;;;;;;;8.77;2.67;;;4.90;99.90;;;;;;6215125;23;20009;-86
2022/04/19 07:09:03;;;;;;;6.82;2.38;;;5.00;99.90;;;;;;6217039;23;20040;-87
2022/04/19 07:11:29;;;;;;;6.35;2.08;;;5.00;99.90;;;;;;6213195;23;20036;-86
2022/04/19 07:13:55;;;;;;;10.88;2.25;;;5.20;99.90;;;;;;6213212;23;20116;-86
2022/04/19 07:16:21;;;;;;;6.18;2.22;;;5.40;99.90;;;;;;6213844;23;20008;-86
2022/04/19 07:18:47;;;;;;;4.78;2.05;;;5.60;99.90;;;;;;6213762;23;20009;-86
2022/04/19 07:26:40;;;;;;;6.95;2.20;;;6.10;99.90;;;;;;6217130;23;20031;-87
2022/04/19 07:29:11;;;;;;;6.65;2.45;;;6.30;99.90;;;;;;6220845;23;20016;-87
2022/04/19 07:31:41;;;;;;;9.32;4.53;;;6.40;99.90;;;;;;6225525;23;20063;-86
2022/04/19 07:34:08;;;;;;;6.10;1.80;;;6.50;99.90;;;;;;6221243;23;20016;-87
2022/04/19 07:36:41;;;;;;;9.50;2.65;;;6.70;99.90;;;;;;6213893;23;20008;-85
2022/04/19 07:39:14;;;;;;;3.97;1.90;;;6.80;99.90;;;;;;6214102;23;20040;-86
2022/04/19 07:41:45;;;;;;;7.13;2.20;;;7.00;99.90;;;;;;6189747;23;20001;-86
2022/04/19 07:44:11;;;;;;;5.40;2.05;;;7.10;99.90;;;;;;6215516;23;20003;-87
2022/04/19 07:46:37;;;;;;;7.00;2.60;;;7.20;99.90;;;;;;6214597;23;20351;-87
2022/04/19 07:49:03;;;;;;;5.90;1.73;;;7.30;99.90;;;;;;6214772;23;20099;-85
2022/04/19 07:51:29;;;;;;;7.72;2.28;;;7.40;99.90;;;;;;6213421;23;20290;-86
2022/04/19 07:53:55;;;;;;;8.23;2.13;;;7.40;99.90;;;;;;6212005;23;20159;-85
2022/04/19 07:56:22;;;;;;;8.95;2.25;;;7.50;99.90;;;;;;6212664;23;20005;-86
2022/04/19 07:58:48;;;;;;;7.60;2.25;;;7.60;99.90;;;;;;6212665;23;20013;-86
2022/04/19 08:01:18;;;;;;;11.85;2.83;;;7.70;99.90;;;;;;6214342;23;20005;-85
2022/04/19 08:03:44;;;;;;;7.38;2.72;;;7.70;99.90;;;;;;6214193;23;20408;-85
2022/04/19 08:06:10;;;;;;;6.85;2.17;;;7.80;99.90;;;;;;6212031;23;20005;-85
2022/04/19 08:08:37;;;;;;;6.35;1.75;;;7.90;99.90;;;;;;6215475;23;20011;-87
2022/04/19 08:11:03;;;;;;;11.45;2.38;;;8.00;99.90;;;;;;6214014;23;20079;-85
2022/04/19 08:13:29;;;;;;;8.25;2.08;;;8.10;99.90;;;;;;6218928;23;20013;-86
2022/04/19 08:15:55;;;;;;;9.63;2.10;;;8.30;99.90;;;;;;6225568;23;20001;-87
2022/04/19 08:18:21;;;;;;;7.30;2.22;;;8.40;99.90;;;;;;6225196;23;20005;-86
2022/04/19 08:20:47;;;;;;;5.75;2.20;;;8.50;99.90;;;;;;6220873;23;20008;-85
2022/04/19 08:23:13;;;;;;;6.72;1.75;;;8.60;99.90;;;;;;6218064;23;20059;-86
2022/04/19 08:25:40;;;;;;;3.15;1.10;;;8.80;99.90;;;;;;6216713;23;20009;-85
2022/04/19 08:28:06;;;;;;;6.10;1.23;;;8.90;99.90;;;;;;6214801;23;20092;-87
2022/04/19 08:30:33;;;;;;;4.13;1.48;;;9.10;99.90;;;;;;6213003;23;20281;-87
2022/04/19 08:32:59;;;;;;;3.38;1.13;;;9.20;99.90;;;;;;6214266;23;20333;-86
2022/04/19 08:35:25;;;;;;;5.00;1.08;;;9.40;99.90;;;;;;6213873;23;20051;-87
2022/04/19 08:37:51;;;;;;;6.95;1.48;;;9.60;99.90;;;;;;6212604;23;20021;-87
2022/04/19 08:40:18;;;;;;;4.88;1.20;;;9.80;99.90;;;;;;6213276;23;20068;-87
2022/04/19 08:42:45;;;;;;;4.18;1.10;;;10.10;99.90;;;;;;6213328;23;20432;-88
2022/04/19 08:45:14;;;;;;;2.47;1.20;;;10.30;99.90;;;;;;6214188;23;20000;-88
2022/04/19 08:47:42;;;;;;;8.05;1.35;;;10.50;99.90;;;;;;6215767;23;20036;-89
2022/04/19 08:50:15;;;;;;;2.72;1.20;;;10.70;99.90;;;;;;6214145;23;19997;-89
2022/04/19 08:52:41;;;;;;;1.63;1.00;;;10.90;99.90;;;;;;6213553;23;20016;-87
2022/04/19 08:57:54;;;;;;;7.45;1.17;;;11.10;99.20;;;;;;6216143;23;20035;-88
2022/04/19 09:00:22;;;;;;;1.30;0.77;;;11.20;98.30;;;;;;6213847;23;20007;-87
2022/04/19 09:02:54;;;;;;;7.70;1.40;;;11.30;97.60;;;;;;6213338;23;20004;-87
2022/04/19 09:05:26;;;;;;;6.63;1.20;;;11.40;96.90;;;;;;6211272;23;20000;-88
2022/04/19 09:07:54;;;;;;;4.55;1.00;;;11.60;96.20;;;;;;6212324;23;20067;-88
2022/04/19 09:10:30;;;;;;;5.40;0.98;;;11.80;95.70;;;;;;6213208;23;20146;-87
2022/04/19 09:13:07;;;;;;;3.33;0.85;;;11.90;95.00;;;;;;6213456;23;20016;-88
2022/04/19 09:15:39;;;;;;;3.75;1.02;;;12.10;94.30;;;;;;6214628;23;20039;-88
2022/04/19 09:18:12;;;;;;;7.85;1.25;;;12.30;93.60;;;;;;6214781;23;20031;-87
2022/04/19 09:20:39;;;;;;;4.63;0.90;;;12.40;93.10;;;;;;6214186;23;20004;-88
2022/04/19 09:23:10;;;;;;;4.82;1.27;;;12.50;91.90;;;;;;6213447;23;20054;-88
2022/04/19 09:25:37;;;;;;;2.92;1.13;;;12.60;91.60;;;;;;6189030;23;20019;-88
2022/04/19 09:28:13;;;;;;;5.80;1.70;;;12.60;90.80;;;;;;6213918;23;20113;-88
2022/04/19 09:30:39;;;;;;;2.80;1.15;;;12.80;90.60;;;;;;6214856;23;20028;-89
2022/04/19 09:33:07;;;;;;;7.15;1.27;;;12.90;90.10;;;;;;6213011;23;20020;-88
2022/04/19 09:35:44;;;;;;;5.70;1.27;;;13.10;89.50;;;;;;6214483;23;20059;-88
2022/04/19 09:38:10;;;;;;;3.22;0.98;;;13.30;88.50;;;;;;6214669;23;20071;-87
2022/04/19 09:40:47;;;;;;;3.17;1.45;;;13.40;86.80;;;;;;6214523;23;20034;-88
2022/04/19 09:43:21;;;;;;;2.85;0.93;;;13.60;85.50;;;;;;6215286;23;20034;-88
2022/04/19 09:45:58;;;;;;;7.97;1.23;;;13.60;84.30;;;;;;6190172;23;20084;-88
2022/04/19 09:48:28;;;;;;;4.65;1.10;;;13.80;83.80;;;;;;6215739;23;20017;-88
2022/04/19 09:50:59;;;;;;;5.00;1.33;;;13.90;82.80;;;;;;6214200;23;20001;-87
2022/04/19 09:53:27;;;;;;;4.75;1.20;;;14.10;82.10;;;;;;6215116;23;20009;-87
2022/04/19 09:55:55;;;;;;;5.53;1.25;;;14.30;81.60;;;;;;6214478;23;20435;-88
2022/04/19 09:58:22;;;;;;;5.32;1.25;;;14.50;80.20;;;;;;6214063;23;20097;-87
2022/04/19 10:00:49;;;;;;;4.80;1.10;;;14.60;80.30;;;;;;6213421;23;20004;-87
2022/04/19 10:08:53;;;;;;;2.53;1.10;;;15.10;77.00;;;;;;6215020;23;20019;-87
2022/04/19 10:11:19;;;;;;;9.73;1.50;;;15.20;75.90;;;;;;6213393;23;20012;-87
2022/04/19 10:13:45;;;;;;;3.42;1.20;;;15.40;75.40;;;;;;6214238;23;20013;-87
2022/04/19 10:16:15;;;;;;;3.60;1.08;;;15.50;74.90;;;;;;6213119;23;20004;-88
2022/04/19 10:18:43;;;;;;;4.78;1.52;;;15.60;74.30;;;;;;6213920;23;20005;-88
2022/04/19 10:21:10;;;;;;;4.00;1.17;;;15.70;73.80;;;;;;6212041;23;20000;-90
2022/04/19 10:23:41;;;;;;;6.20;1.63;;;15.70;73.50;;;;;;6213007;23;20035;-90
2022/04/19 10:26:19;;;;;;;2.90;1.25;;;15.80;73.00;;;;;;6212377;23;20009;-87
2022/04/19 10:28:46;;;;;;;3.80;1.45;;;15.70;72.80;;;;;;6212284;23;20011;-87
2022/04/19 10:31:13;;;;;;;3.58;1.63;;;15.70;72.80;;;;;;6212889;23;20005;-87
2022/04/19 10:33:39;;;;;;;4.28;1.38;;;15.80;72.70;;;;;;6212299;23;20017;-88
2022/04/19 10:36:34;;;;;;;5.65;1.42;;;16.10;72.30;;;;;;6214492;23;20000;-88
2022/04/19 10:39:12;;;;;;;5.32;1.17;;;16.40;71.70;;;;;;6214813;23;20020;-89
2022/04/19 10:41:56;;;;;;;3.22;1.30;;;16.60;70.40;;;;;;6216258;23;20005;-89
2022/04/19 10:44:36;;;;;;;7.05;1.60;;;16.60;69.70;;;;;;6216804;23;20034;-89
2022/04/19 10:47:08;;;;;;;7.63;1.88;;;16.70;69.00;;;;;;6190202;23;20298;-88
2022/04/19 10:49:59;;;;;;;5.50;1.70;;;16.80;68.90;;;;;;6220866;23;20005;-89
2022/04/19 10:52:40;;;;;;;7.47;1.90;;;17.00;68.80;;;;;;6226509;23;20016;-89
2022/04/19 10:55:14;;;;;;;;;;;17.20;68.10;;;;;;6222774;23;20017;-90
2022/04/19 11:00:36;;;;;;;7.07;1.85;;;17.40;67.00;;;;;;6217764;23;20119;-89
2022/04/19 11:03:03;;;;;;;5.57;1.73;;;17.50;67.10;;;;;;6214083;23;20005;-89
2022/04/19 11:05:41;;;;;;;5.72;2.08;;;17.60;66.30;;;;;;6214378;23;20001;-88
2022/04/19 11:08:25;;;;;;;5.72;1.92;;;17.70;66.30;;;;;;6214090;23;20020;-89
2022/04/19 11:10:53;;;;;;;4.68;1.77;;;17.70;65.30;;;;;;6213263;23;20001;-90
2022/04/19 11:13:37;;;;;;;6.88;2.05;;;17.60;65.00;;;;;;6214552;23;20013;-91
2022/04/19 11:16:05;;;;;;;2.22;1.27;;;17.30;64.50;;;;;;6213217;23;20025;-90
2022/04/19 11:18:35;;;;;;;5.03;1.33;;;16.90;65.10;;;;;;6213685;23;20012;-90
2022/04/19 11:21:03;;;;;;;9.60;1.90;;;16.80;65.40;;;;;;6213392;23;20000;-88
2022/04/19 11:23:42;;;;;;;9.82;2.70;;;16.60;65.40;;;;;;6214333;23;20039;-89
2022/04/19 11:26:27;;;;;;;4.80;1.58;;;16.70;65.50;;;;;;6214432;23;20011;-87
2022/04/19 11:29:14;;;;;;;4.32;1.63;;;16.80;65.50;;;;;;6215135;23;20424;-88
2022/04/19 11:31:43;;;;;;;3.85;1.58;;;17.10;64.70;;;;;;6217009;23;20011;-87
2022/04/19 11:34:13;;;;;;;6.45;2.63;;;17.30;64.30;;;;;;6217022;23;20017;-90
2022/04/19 11:36:38;;;;;;;4.50;1.75;;;17.40;63.50;;;;;;6216788;23;19997;-89
2022/04/19 11:39:04;;;;;;;7.78;1.83;;;17.40;63.50;;;;;;6215728;23;20026;-89
2022/04/19 11:46:52;;;;;;;6.50;1.45;;;18.40;61.80;;;;;;6227275;23;20015;-90
2022/04/19 11:49:27;;;;;;;3.67;1.65;;;18.70;61.10;;;;;;6216307;23;20013;-89
2022/04/19 11:52:01;;;;;;;5.15;1.42;;;18.90;59.90;;;;;;6216464;23;20009;-90
2022/04/19 11:54:29;;;;;;;6.30;1.75;;;19.10;59.20;;;;;;6223115;23;20008;-90
2022/04/19 11:56:56;;;;;;;3.75;1.50;;;19.10;58.90;;;;;;6234386;23;20060;-90
2022/04/19 11:59:30;;;;;;;3.40;1.85;;;19.30;58.40;;;;;;6233710;23;20016;-90
2022/04/19 12:01:57;;;;;;;6.82;2.40;;;19.30;58.10;;;;;;6217603;23;20551;-89
2022/04/19 12:04:23;;;;;;;9.52;1.75;;;19.40;57.90;;;;;;6216748;23;20487;-90
2022/04/19 12:06:56;;;;;;;3.50;1.50;;;19.50;58.10;;;;;;6217903;23;20273;-90
2022/04/19 12:09:24;;;;;;;2.67;1.50;;;19.70;57.90;;;;;;6217175;23;20009;-90
2022/04/19 12:11:51;;;;;;;4.13;1.73;;;19.90;57.50;;;;;;6213783;23;20054;-90
2022/04/19 12:14:28;;;;;;;7.50;1.70;;;20.00;57.10;;;;;;6215660;23;20004;-89
2022/04/19 12:17:18;;;;;;;6.00;1.83;;;20.10;56.60;;;;;;6188460;23;20009;-89
2022/04/19 12:19:43;;;;;;;5.18;1.75;;;20.30;56.20;;;;;;6214816;23;20004;-89
2022/04/19 12:22:23;;;;;;;5.97;2.00;;;20.50;55.80;;;;;;6215635;23;20008;-90
2022/04/19 12:24:58;;;;;;;3.63;1.50;;;20.50;55.50;;;;;;6212870;23;20007;-93
2022/04/19 12:27:26;;;;;;;5.38;1.30;;;20.30;55.20;;;;;;6213543;23;20458;-92
2022/04/19 12:29:59;;;;;;;3.78;1.33;;;20.20;55.60;;;;;;6212287;23;20001;-93
2022/04/19 12:32:26;;;;;;;4.80;1.50;;;20.30;56.10;;;;;;6214989;23;20025;-91
2022/04/19 12:35:07;;;;;;;6.85;1.83;;;20.20;55.70;;;;;;6212595;23;20040;-92
2022/04/19 12:37:44;;;;;;;3.08;1.73;;;20.10;55.10;;;;;;6189741;23;20020;-90
2022/04/19 12:40:10;;;;;;;6.65;2.05;;;20.10;55.10;;;;;;6192828;23;20008;-90
2022/04/19 12:42:52;;;;;;;4.72;1.58;;;20.10;55.10;;;;;;6215108;23;20060;-90
2022/04/19 12:45:29;;;;;;;3.65;1.63;;;20.20;54.90;;;;;;6202672;23;20771;-93
2022/04/19 12:47:58;;;;;;;4.85;1.77;;;20.30;55.00;;;;;;6214950;23;20004;-91
2022/04/19 12:50:24;;;;;;;3.85;1.70;;;20.60;54.70;;;;;;6211892;23;20017;-92
2022/04/19 12:52:50;;;;;;;6.22;1.77;;;21.00;54.60;;;;;;6211669;23;20475;-92
2022/04/19 12:55:26;;;;;;;9.15;1.80;;;21.20;53.20;;;;;;6213213;23;20012;-92
2022/04/19 12:58:08;;;;;;;3.30;1.75;;;21.20;52.50;;;;;;6214253;23;20438;-93
2022/04/19 13:00:35;;;;;;;5.35;1.70;;;21.30;52.40;;;;;;6214018;23;20020;-93
2022/04/19 13:03:01;;;;;;;5.35;1.80;;;21.20;52.20;;;;;;6213935;23;20115;-92
2022/04/19 13:12:16;;;;;;;5.63;1.92;;;20.90;52.50;;;;;;6214019;23;20012;-91
2022/04/19 13:13:41;;;;;;;5.30;2.50;;;20.70;52.20;;;;;;6215779;23;20043;-93
2022/04/19 13:16:07;;;;;;;6.38;1.95;;;20.70;52.20;;;;;;6214857;23;20005;-90
2022/04/19 13:18:33;;;;;;;5.05;1.77;;;20.70;51.70;;;;;;6216033;23;20008;-91
2022/04/19 13:20:59;;;;;;;4.57;1.70;;;20.70;51.50;;;;;;6215763;23;20040;-93
2022/04/19 13:23:25;;;;;;;3.25;2.22;;;20.70;52.20;;;;;;6223688;23;20013;-92
2022/04/19 13:25:52;;;;;;;4.75;1.80;;;20.70;52.40;;;;;;6217397;23;20001;-92
2022/04/19 13:28:18;;;;;;;5.43;2.13;;;20.50;52.40;;;;;;6214965;23;20008;-92
2022/04/19 13:30:44;;;;;;;9.85;2.42;;;20.20;52.70;;;;;;6215527;23;20003;-92
2022/04/19 13:33:09;;;;;;;7.40;2.38;;;19.90;53.50;;;;;;6217333;23;20012;-94
2022/04/19 13:35:35;;;;;;;6.20;2.15;;;19.50;54.20;;;;;;6219649;23;19997;-93
2022/04/19 13:40:45;;;;;;;5.88;2.13;;;19.00;55.00;;;;;;6218608;23;20027;-92